Time,TemperatureF,DewpointF,PressureIn,WindDirection,WindDirectionDegrees,WindSpeedMPH,WindSpeedGustMPH,Humidity,HourlyPrecipIn,Conditions,Clouds,dailyrainin,SolarRadiationWatts/m^2,SoftwareType,DateUTC
2013-09-27 00:22:00,57.0,40.0,-100.00,West,281,20.0,28.0,52,0.00,,,0.00,0.000000,,2013-09-27 07:22:00,
2013-09-27 00:32:00,57.0,40.0,-100.00,West,281,20.0,28.0,52,0.00,,,0.00,0.000000,,2013-09-27 07:32:00,
2013-09-27 00:43:00,57.0,40.0,-100.00,West,281,20.0,28.0,52,0.00,,,0.00,0.000000,,2013-09-27 07:43:00,
2013-09-27 00:50:00,58.0,39.0,-100.00,WNW,288,17.0,25.0,50,0.00,,,0.00,0.000000,,2013-09-27 07:50:00,
2013-09-27 01:22:00,58.0,39.0,-100.00,WNW,288,17.0,25.0,50,0.00,,,0.00,0.000000,,2013-09-27 08:22:00,
2013-09-27 01:32:00,58.0,39.0,-100.00,WNW,288,17.0,25.0,50,0.00,,,0.00,0.000000,,2013-09-27 08:32:00,
2013-09-27 01:42:00,58.0,39.0,-100.00,WNW,288,17.0,25.0,50,0.00,,,0.00,0.000000,,2013-09-27 08:42:00,
2013-09-27 01:50:00,58.0,36.0,-100.00,WNW,283,13.0,20.0,44,0.00,,,0.00,0.000000,,2013-09-27 08:50:00,
2013-09-27 02:22:00,58.0,36.0,-100.00,WNW,283,13.0,20.0,44,0.00,,,0.00,0.000000,,2013-09-27 09:22:00,
2013-09-27 02:33:00,58.0,36.0,-100.00,WNW,283,13.0,20.0,44,0.00,,,0.00,0.000000,,2013-09-27 09:33:00,
2013-09-27 02:44:00,58.0,36.0,-100.00,WNW,283,13.0,20.0,44,0.00,,,0.00,0.000000,,2013-09-27 09:44:00,
2013-09-27 02:50:00,57.0,30.0,-100.00,WNW,285,10.0,15.0,36,0.00,,,0.00,0.000000,,2013-09-27 09:50:00,
2013-09-27 03:23:00,57.0,30.0,-100.00,WNW,285,10.0,15.0,36,0.00,,,0.00,0.000000,,2013-09-27 10:23:00,
2013-09-27 03:33:00,57.0,30.0,-100.00,WNW,285,10.0,15.0,36,0.00,,,0.00,0.000000,,2013-09-27 10:33:00,
2013-09-27 03:42:00,57.0,30.0,-100.00,WNW,285,10.0,15.0,36,0.00,,,0.00,0.000000,,2013-09-27 10:42:00,
2013-09-27 03:50:00,58.0,27.0,-100.00,West,271,6.0,11.0,30,0.00,,,0.00,0.000000,,2013-09-27 10:50:00,
2013-09-27 04:22:00,58.0,27.0,-100.00,West,271,6.0,11.0,30,0.00,,,0.00,0.000000,,2013-09-27 11:22:00,
2013-09-27 04:33:00,58.0,27.0,-100.00,West,271,6.0,11.0,30,0.00,,,0.00,0.000000,,2013-09-27 11:33:00,
2013-09-27 04:42:00,58.0,27.0,-100.00,West,271,6.0,11.0,30,0.00,,,0.00,0.000000,,2013-09-27 11:42:00,
2013-09-27 04:50:00,54.0,28.0,-100.00,WNW,282,4.0,8.0,37,0.00,,,0.00,0.000000,,2013-09-27 11:50:00,
2013-09-27 05:21:00,54.0,28.0,-100.00,WNW,282,4.0,8.0,37,0.00,,,0.00,0.000000,,2013-09-27 12:21:00,
2013-09-27 05:32:00,54.0,28.0,-100.00,WNW,282,4.0,8.0,37,0.00,,,0.00,0.000000,,2013-09-27 12:32:00,
2013-09-27 05:42:00,54.0,28.0,-100.00,WNW,282,4.0,8.0,37,0.00,,,0.00,0.000000,,2013-09-27 12:42:00,
2013-09-27 05:50:00,56.0,27.0,-100.00,WNW,299,1.0,7.0,33,0.00,,,0.00,0.000000,,2013-09-27 12:50:00,
2013-09-27 06:21:00,56.0,27.0,-100.00,WNW,299,1.0,7.0,33,0.00,,,0.00,0.000000,,2013-09-27 13:21:00,
2013-09-27 06:32:00,56.0,27.0,-100.00,WNW,299,1.0,7.0,33,0.00,,,0.00,0.000000,,2013-09-27 13:32:00,
2013-09-27 06:42:00,56.0,27.0,-100.00,WNW,299,1.0,7.0,33,0.00,,,0.00,0.000000,,2013-09-27 13:42:00,
2013-09-27 06:50:00,55.0,23.0,-100.00,SSE,147,0.0,4.0,28,0.00,,,0.00,1.000000,,2013-09-27 13:50:00,
2013-09-27 07:21:00,55.0,23.0,-100.00,SSE,147,0.0,4.0,28,0.00,,,0.00,1.000000,,2013-09-27 14:21:00,
2013-09-27 07:32:00,55.0,23.0,-100.00,SSE,147,0.0,4.0,28,0.00,,,0.00,1.000000,,2013-09-27 14:32:00,
2013-09-27 07:42:00,55.0,23.0,-100.00,SSE,147,0.0,4.0,28,0.00,,,0.00,1.000000,,2013-09-27 14:42:00,
2013-09-27 07:50:00,62.0,23.0,-100.00,SE,145,2.0,7.0,22,0.00,,,0.00,86.000000,,2013-09-27 14:50:00,
2013-09-27 08:44:00,62.0,23.0,-100.00,SE,145,2.0,7.0,22,0.00,,,0.00,86.000000,,2013-09-27 15:44:00,
2013-09-27 08:50:00,67.0,23.0,-100.00,SE,131,5.0,12.0,19,0.00,,,0.00,291.000000,,2013-09-27 15:50:00,
2013-09-27 09:24:00,67.0,23.0,-100.00,SE,131,5.0,12.0,19,0.00,,,0.00,291.000000,,2013-09-27 16:24:00,
2013-09-27 09:34:00,67.0,23.0,-100.00,SE,131,5.0,12.0,19,0.00,,,0.00,291.000000,,2013-09-27 16:34:00,
2013-09-27 09:44:00,67.0,23.0,-100.00,SE,131,5.0,12.0,19,0.00,,,0.00,291.000000,,2013-09-27 16:44:00,
2013-09-27 09:50:00,71.0,23.0,-100.00,East,87,3.0,14.0,16,0.00,,,0.00,477.000000,,2013-09-27 16:50:00,
2013-09-27 10:23:00,71.0,23.0,-100.00,East,87,3.0,14.0,16,0.00,,,0.00,477.000000,,2013-09-27 17:23:00,
2013-09-27 10:34:00,71.0,23.0,-100.00,East,87,3.0,14.0,16,0.00,,,0.00,477.000000,,2013-09-27 17:34:00,
2013-09-27 10:43:00,71.0,23.0,-100.00,East,87,3.0,14.0,16,0.00,,,0.00,477.000000,,2013-09-27 17:43:00,
2013-09-27 10:50:00,73.0,21.0,-100.00,SE,135,12.0,21.0,14,0.00,,,0.00,665.000000,,2013-09-27 17:50:00,
2013-09-27 11:21:00,73.0,21.0,-100.00,SE,135,12.0,21.0,14,0.00,,,0.00,665.000000,,2013-09-27 18:21:00,
2013-09-27 11:33:00,73.0,21.0,-100.00,SE,135,12.0,21.0,14,0.00,,,0.00,665.000000,,2013-09-27 18:33:00,
2013-09-27 11:43:00,73.0,21.0,-100.00,SE,135,12.0,21.0,14,0.00,,,0.00,665.000000,,2013-09-27 18:43:00,
2013-09-27 11:50:00,74.0,20.0,-100.00,SE,126,10.0,21.0,13,0.00,,,0.00,822.000000,,2013-09-27 18:50:00,
2013-09-27 12:22:00,74.0,20.0,-100.00,SE,126,10.0,21.0,13,0.00,,,0.00,822.000000,,2013-09-27 19:22:00,
2013-09-27 12:32:00,74.0,20.0,-100.00,SE,126,10.0,21.0,13,0.00,,,0.00,822.000000,,2013-09-27 19:32:00,
2013-09-27 12:42:00,74.0,20.0,-100.00,SE,126,10.0,21.0,13,0.00,,,0.00,822.000000,,2013-09-27 19:42:00,
2013-09-27 12:50:00,77.0,20.0,-100.00,SE,137,7.0,23.0,12,0.00,,,0.00,876.000000,,2013-09-27 19:50:00,
2013-09-27 13:22:00,77.0,20.0,-100.00,SE,137,7.0,23.0,12,0.00,,,0.00,876.000000,,2013-09-27 20:22:00,
2013-09-27 13:32:00,77.0,20.0,-100.00,SE,137,7.0,23.0,12,0.00,,,0.00,876.000000,,2013-09-27 20:32:00,
2013-09-27 13:42:00,77.0,20.0,-100.00,SE,137,7.0,23.0,12,0.00,,,0.00,876.000000,,2013-09-27 20:42:00,
2013-09-27 13:50:00,77.0,16.0,-100.00,SE,125,11.0,22.0,10,0.00,,,0.00,863.000000,,2013-09-27 20:50:00,
2013-09-27 14:21:00,77.0,16.0,-100.00,SE,125,11.0,22.0,10,0.00,,,0.00,863.000000,,2013-09-27 21:21:00,
2013-09-27 14:33:00,77.0,16.0,-100.00,SE,125,11.0,22.0,10,0.00,,,0.00,863.000000,,2013-09-27 21:33:00,
2013-09-27 14:44:00,77.0,16.0,-100.00,SE,125,11.0,22.0,10,0.00,,,0.00,863.000000,,2013-09-27 21:44:00,
2013-09-27 14:50:00,75.0,15.0,-100.00,SE,133,15.0,26.0,10,0.00,,,0.00,781.000000,,2013-09-27 21:50:00,
2013-09-27 15:24:00,75.0,15.0,-100.00,SE,133,15.0,26.0,10,0.00,,,0.00,781.000000,,2013-09-27 22:24:00,
2013-09-27 15:34:00,75.0,15.0,-100.00,SE,133,15.0,26.0,10,0.00,,,0.00,781.000000,,2013-09-27 22:34:00,
2013-09-27 15:43:00,75.0,15.0,-100.00,SE,133,15.0,26.0,10,0.00,,,0.00,781.000000,,2013-09-27 22:43:00,
2013-09-27 15:50:00,76.0,16.0,-100.00,SE,126,10.0,24.0,10,0.00,,,0.00,638.000000,,2013-09-27 22:50:00,
2013-09-27 16:22:00,76.0,16.0,-100.00,SE,126,10.0,24.0,10,0.00,,,0.00,638.000000,,2013-09-27 23:22:00,
2013-09-27 16:34:00,76.0,16.0,-100.00,SE,126,10.0,24.0,10,0.00,,,0.00,638.000000,,2013-09-27 23:34:00,
2013-09-27 16:43:00,76.0,16.0,-100.00,SE,126,10.0,24.0,10,0.00,,,0.00,638.000000,,2013-09-27 23:43:00,
2013-09-27 16:50:00,75.0,15.0,-100.00,SE,138,10.0,18.0,10,0.00,,,0.00,446.000000,,2013-09-27 23:50:00,
2013-09-27 17:22:00,75.0,15.0,-100.00,SE,138,10.0,18.0,10,0.00,,,0.00,446.000000,,2013-09-28 00:22:00,
2013-09-27 17:32:00,75.0,15.0,-100.00,SE,138,10.0,18.0,10,0.00,,,0.00,446.000000,,2013-09-28 00:32:00,
2013-09-27 17:42:00,75.0,15.0,-100.00,SE,138,10.0,18.0,10,0.00,,,0.00,446.000000,,2013-09-28 00:42:00,
2013-09-27 17:50:00,73.0,15.0,-100.00,SE,134,10.0,20.0,11,0.00,,,0.00,155.000000,,2013-09-28 00:50:00,
2013-09-27 18:21:00,73.0,15.0,-100.00,SE,134,10.0,20.0,11,0.00,,,0.00,155.000000,,2013-09-28 01:21:00,
2013-09-27 18:32:00,73.0,15.0,-100.00,SE,134,10.0,20.0,11,0.00,,,0.00,155.000000,,2013-09-28 01:32:00,
2013-09-27 18:42:00,73.0,15.0,-100.00,SE,134,10.0,20.0,11,0.00,,,0.00,155.000000,,2013-09-28 01:42:00,
2013-09-27 18:50:00,70.0,13.0,-100.00,ESE,122,9.0,17.0,11,0.00,,,0.00,12.000000,,2013-09-28 01:50:00,
2013-09-27 19:22:00,70.0,13.0,-100.00,ESE,122,9.0,17.0,11,0.00,,,0.00,12.000000,,2013-09-28 02:22:00,
2013-09-27 19:32:00,70.0,13.0,-100.00,ESE,122,9.0,17.0,11,0.00,,,0.00,12.000000,,2013-09-28 02:32:00,
2013-09-27 19:42:00,70.0,13.0,-100.00,ESE,122,9.0,17.0,11,0.00,,,0.00,12.000000,,2013-09-28 02:42:00,
2013-09-27 19:50:00,68.0,14.0,-100.00,ESE,115,6.0,18.0,12,0.00,,,0.00,0.000000,,2013-09-28 02:50:00,
2013-09-27 20:22:00,68.0,14.0,-100.00,ESE,115,6.0,18.0,12,0.00,,,0.00,0.000000,,2013-09-28 03:22:00,
2013-09-27 20:34:00,68.0,14.0,-100.00,ESE,115,6.0,18.0,12,0.00,,,0.00,0.000000,,2013-09-28 03:34:00,
2013-09-27 20:45:00,68.0,14.0,-100.00,ESE,115,6.0,18.0,12,0.00,,,0.00,0.000000,,2013-09-28 03:45:00,
2013-09-27 20:50:00,67.0,16.0,-100.00,SE,129,4.0,11.0,14,0.00,,,0.00,0.000000,,2013-09-28 03:50:00,
2013-09-27 21:25:00,67.0,16.0,-100.00,SE,129,4.0,11.0,14,0.00,,,0.00,0.000000,,2013-09-28 04:25:00,
2013-09-27 21:34:00,67.0,16.0,-100.00,SE,129,4.0,11.0,14,0.00,,,0.00,0.000000,,2013-09-28 04:34:00,
2013-09-27 21:43:00,67.0,16.0,-100.00,SE,129,4.0,11.0,14,0.00,,,0.00,0.000000,,2013-09-28 04:43:00,
2013-09-27 21:50:00,65.0,16.0,-100.00,SSE,148,2.0,5.0,15,0.00,,,0.00,0.000000,,2013-09-28 04:50:00,
2013-09-27 22:22:00,65.0,16.0,-100.00,SSE,148,2.0,5.0,15,0.00,,,0.00,0.000000,,2013-09-28 05:22:00,
2013-09-27 22:34:00,65.0,16.0,-100.00,SSE,148,2.0,5.0,15,0.00,,,0.00,0.000000,,2013-09-28 05:34:00,
2013-09-27 22:43:00,65.0,16.0,-100.00,SSE,148,2.0,5.0,15,0.00,,,0.00,0.000000,,2013-09-28 05:43:00,
2013-09-27 22:50:00,65.0,16.0,-100.00,ESE,114,4.0,8.0,15,0.00,,,0.00,0.000000,,2013-09-28 05:50:00,
2013-09-27 23:22:00,65.0,16.0,-100.00,ESE,114,4.0,8.0,15,0.00,,,0.00,0.000000,,2013-09-28 06:22:00,
2013-09-27 23:32:00,65.0,16.0,-100.00,ESE,114,4.0,8.0,15,0.00,,,0.00,0.000000,,2013-09-28 06:32:00,
2013-09-27 23:42:00,65.0,16.0,-100.00,ESE,114,4.0,8.0,15,0.00,,,0.00,0.000000,,2013-09-28 06:42:00,
2013-09-27 23:50:00,64.0,14.0,-100.00,East,84,4.0,7.0,14,0.00,,,0.00,0.000000,,2013-09-28 06:50:00,